Yancey Mills, Virginia
Current Conditions -  °F | °C
As of 3:35 AM on Friday 19 Dec 2014 (Local Time) from KW13 Reporting Station
Overcast Overcast  
Wind Chill: 30°   Ceiling: 7000
Heat Index: 30°   Visibility: 10mi
Dew Point: 24°   Wind: 0mph
Humidity: 78%   Direction: NA
Pressure: 30.07"   Gusts: NA
Location:  38.1379°N, 78.7036°W
Report Text: KW13 190835Z AUTO 00000KT 10SM OVC070 M01/M04 A3007 RMK AO1 T10101044
Loading
Personal Weather Stations






























Interactive Weather Map New forecast layout! Learn more

10-Day Weather Forecast

Advertisements
Track Severe Weather on mobile